sensor_id;sensor_type;location;lat;lon;timestamp;P1;durP1;ratioP1;P2;durP2;ratioP2
35777;SDS011;21899;42.662;23.316;2023-12-07T00:00:31;38.38;;;21.17;;
35777;SDS011;21899;42.662;23.316;2023-12-07T00:02:57;45.80;;;21.17;;
35777;SDS011;21899;42.662;23.316;2023-12-07T00:05:24;43.30;;;22.73;;
35777;SDS011;21899;42.662;23.316;2023-12-07T00:07:50;43.65;;;22.33;;
35777;SDS011;21899;42.662;23.316;2023-12-07T00:10:15;41.33;;;22.33;;
35777;SDS011;21899;42.662;23.316;2023-12-07T00:12:41;43.55;;;23.23;;
35777;SDS011;21899;42.662;23.316;2023-12-07T00:15:06;39.88;;;22.42;;
35777;SDS011;21899;42.662;23.316;2023-12-07T00:17:32;44.65;;;23.95;;
35777;SDS011;21899;42.662;23.316;2023-12-07T00:19:58;41.95;;;22.58;;
35777;SDS011;21899;42.662;23.316;2023-12-07T00:22:23;42.83;;;24.65;;
35777;SDS011;21899;42.662;23.316;2023-12-07T00:24:50;48.85;;;25.13;;
35777;SDS011;21899;42.662;23.316;2023-12-07T00:27:16;43.83;;;23.55;;
35777;SDS011;21899;42.662;23.316;2023-12-07T00:29:41;44.17;;;23.30;;
35777;SDS011;21899;42.662;23.316;2023-12-07T00:32:07;44.00;;;23.00;;
35777;SDS011;21899;42.662;23.316;2023-12-07T00:34:32;41.33;;;24.00;;
35777;SDS011;21899;42.662;23.316;2023-12-07T00:36:58;40.05;;;22.40;;
35777;SDS011;21899;42.662;23.316;2023-12-07T00:39:23;43.50;;;24.35;;
35777;SDS011;21899;42.662;23.316;2023-12-07T00:41:48;42.80;;;24.25;;
35777;SDS011;21899;42.662;23.316;2023-12-07T00:44:14;41.50;;;23.50;;
35777;SDS011;21899;42.662;23.316;2023-12-07T00:46:40;43.65;;;24.25;;
35777;SDS011;21899;42.662;23.316;2023-12-07T00:49:05;44.90;;;24.27;;
35777;SDS011;21899;42.662;23.316;2023-12-07T00:51:31;47.00;;;25.05;;
35777;SDS011;21899;42.662;23.316;2023-12-07T00:53:56;49.85;;;25.55;;
35777;SDS011;21899;42.662;23.316;2023-12-07T00:56:23;47.50;;;26.10;;
35777;SDS011;21899;42.662;23.316;2023-12-07T00:58:49;48.92;;;25.45;;
35777;SDS011;21899;42.662;23.316;2023-12-07T01:01:14;50.25;;;25.02;;
35777;SDS011;21899;42.662;23.316;2023-12-07T01:03:40;49.13;;;24.60;;
35777;SDS011;21899;42.662;23.316;2023-12-07T01:06:06;51.97;;;26.70;;
35777;SDS011;21899;42.662;23.316;2023-12-07T01:08:32;45.70;;;23.90;;
35777;SDS011;21899;42.662;23.316;2023-12-07T01:10:57;51.85;;;25.75;;
35777;SDS011;21899;42.662;23.316;2023-12-07T01:13:23;43.33;;;24.92;;
35777;SDS011;21899;42.662;23.316;2023-12-07T01:15:49;50.45;;;26.90;;
35777;SDS011;21899;42.662;23.316;2023-12-07T01:18:15;47.38;;;25.13;;
35777;SDS011;21899;42.662;23.316;2023-12-07T01:20:41;52.60;;;26.30;;
35777;SDS011;21899;42.662;23.316;2023-12-07T01:23:07;46.33;;;25.92;;
35777;SDS011;21899;42.662;23.316;2023-12-07T01:25:33;45.85;;;25.20;;
35777;SDS011;21899;42.662;23.316;2023-12-07T01:27:59;48.65;;;24.13;;
35777;SDS011;21899;42.662;23.316;2023-12-07T01:30:25;44.38;;;23.95;;
35777;SDS011;21899;42.662;23.316;2023-12-07T01:32:50;47.53;;;25.00;;
35777;SDS011;21899;42.662;23.316;2023-12-07T01:35:16;51.13;;;26.48;;
35777;SDS011;21899;42.662;23.316;2023-12-07T01:37:41;50.90;;;25.02;;
35777;SDS011;21899;42.662;23.316;2023-12-07T01:40:07;53.72;;;26.20;;
35777;SDS011;21899;42.662;23.316;2023-12-07T01:42:36;51.90;;;26.50;;
35777;SDS011;21899;42.662;23.316;2023-12-07T01:45:02;55.13;;;27.23;;
35777;SDS011;21899;42.662;23.316;2023-12-07T01:47:28;54.42;;;28.67;;
35777;SDS011;21899;42.662;23.316;2023-12-07T01:49:54;53.88;;;27.13;;
35777;SDS011;21899;42.662;23.316;2023-12-07T01:52:20;50.67;;;25.85;;
35777;SDS011;21899;42.662;23.316;2023-12-07T01:54:47;48.78;;;24.92;;
35777;SDS011;21899;42.662;23.316;2023-12-07T01:57:13;47.53;;;24.58;;
35777;SDS011;21899;42.662;23.316;2023-12-07T01:59:38;45.20;;;25.20;;
35777;SDS011;21899;42.662;23.316;2023-12-07T02:02:04;47.05;;;25.38;;
35777;SDS011;21899;42.662;23.316;2023-12-07T02:04:30;54.35;;;27.05;;
35777;SDS011;21899;42.662;23.316;2023-12-07T02:06:56;53.65;;;27.30;;
35777;SDS011;21899;42.662;23.316;2023-12-07T02:09:25;51.85;;;26.27;;
35777;SDS011;21899;42.662;23.316;2023-12-07T02:11:50;49.85;;;26.67;;
35777;SDS011;21899;42.662;23.316;2023-12-07T02:14:16;51.50;;;26.30;;
35777;SDS011;21899;42.662;23.316;2023-12-07T02:16:45;50.70;;;25.67;;
35777;SDS011;21899;42.662;23.316;2023-12-07T02:22:14;53.35;;;27.23;;
35777;SDS011;21899;42.662;23.316;2023-12-07T02:24:47;55.30;;;27.38;;
35777;SDS011;21899;42.662;23.316;2023-12-07T02:30:07;53.10;;;26.70;;
35777;SDS011;21899;42.662;23.316;2023-12-07T02:32:34;52.42;;;26.42;;
35777;SDS011;21899;42.662;23.316;2023-12-07T02:35:04;53.15;;;27.40;;
35777;SDS011;21899;42.662;23.316;2023-12-07T02:37:33;49.22;;;26.55;;
35777;SDS011;21899;42.662;23.316;2023-12-07T02:40:03;53.03;;;25.90;;
35777;SDS011;21899;42.662;23.316;2023-12-07T02:42:35;49.88;;;26.67;;
35777;SDS011;21899;42.662;23.316;2023-12-07T02:45:02;52.13;;;27.05;;
35777;SDS011;21899;42.662;23.316;2023-12-07T02:47:28;50.78;;;26.05;;
35777;SDS011;21899;42.662;23.316;2023-12-07T02:49:54;50.40;;;24.63;;
35777;SDS011;21899;42.662;23.316;2023-12-07T02:52:20;54.92;;;26.38;;
35777;SDS011;21899;42.662;23.316;2023-12-07T02:54:45;50.92;;;27.35;;
35777;SDS011;21899;42.662;23.316;2023-12-07T02:57:10;51.13;;;26.58;;
35777;SDS011;21899;42.662;23.316;2023-12-07T02:59:36;53.88;;;26.95;;
35777;SDS011;21899;42.662;23.316;2023-12-07T03:02:02;49.78;;;25.70;;
35777;SDS011;21899;42.662;23.316;2023-12-07T03:04:28;51.40;;;25.92;;
35777;SDS011;21899;42.662;23.316;2023-12-07T03:06:53;51.65;;;27.30;;
35777;SDS011;21899;42.662;23.316;2023-12-07T03:09:19;52.80;;;27.10;;
35777;SDS011;21899;42.662;23.316;2023-12-07T03:11:44;50.83;;;24.35;;
35777;SDS011;21899;42.662;23.316;2023-12-07T03:14:09;44.63;;;24.00;;
35777;SDS011;21899;42.662;23.316;2023-12-07T03:16:35;44.17;;;23.75;;
35777;SDS011;21899;42.662;23.316;2023-12-07T03:19:01;49.22;;;24.63;;
35777;SDS011;21899;42.662;23.316;2023-12-07T03:21:26;48.78;;;25.02;;
35777;SDS011;21899;42.662;23.316;2023-12-07T03:23:52;46.17;;;23.27;;
35777;SDS011;21899;42.662;23.316;2023-12-07T03:26:17;42.00;;;22.02;;
35777;SDS011;21899;42.662;23.316;2023-12-07T03:28:43;42.00;;;22.10;;
35777;SDS011;21899;42.662;23.316;2023-12-07T03:31:08;44.90;;;22.83;;
35777;SDS011;21899;42.662;23.316;2023-12-07T03:33:34;47.65;;;23.50;;
35777;SDS011;21899;42.662;23.316;2023-12-07T03:36:01;46.60;;;23.92;;
35777;SDS011;21899;42.662;23.316;2023-12-07T03:38:27;40.53;;;22.23;;
35777;SDS011;21899;42.662;23.316;2023-12-07T03:40:52;46.45;;;23.15;;
35777;SDS011;21899;42.662;23.316;2023-12-07T03:43:18;47.55;;;23.80;;
35777;SDS011;21899;42.662;23.316;2023-12-07T03:45:44;44.67;;;23.02;;
35777;SDS011;21899;42.662;23.316;2023-12-07T03:48:10;36.33;;;19.73;;
35777;SDS011;21899;42.662;23.316;2023-12-07T03:50:35;33.40;;;18.83;;
35777;SDS011;21899;42.662;23.316;2023-12-07T03:53:01;34.47;;;18.98;;
35777;SDS011;21899;42.662;23.316;2023-12-07T03:55:26;34.60;;;19.77;;
35777;SDS011;21899;42.662;23.316;2023-12-07T03:57:52;38.05;;;21.08;;
35777;SDS011;21899;42.662;23.316;2023-12-07T04:00:17;35.20;;;18.80;;
35777;SDS011;21899;42.662;23.316;2023-12-07T04:02:43;35.58;;;19.63;;
35777;SDS011;21899;42.662;23.316;2023-12-07T04:05:08;35.15;;;19.50;;
35777;SDS011;21899;42.662;23.316;2023-12-07T04:07:34;34.95;;;20.02;;
35777;SDS011;21899;42.662;23.316;2023-12-07T04:09:59;40.63;;;21.17;;
35777;SDS011;21899;42.662;23.316;2023-12-07T04:12:25;32.10;;;17.90;;
35777;SDS011;21899;42.662;23.316;2023-12-07T04:14:50;33.13;;;19.33;;
35777;SDS011;21899;42.662;23.316;2023-12-07T04:17:19;38.10;;;19.67;;
35777;SDS011;21899;42.662;23.316;2023-12-07T04:19:46;40.92;;;20.85;;
35777;SDS011;21899;42.662;23.316;2023-12-07T04:22:11;36.58;;;19.30;;
35777;SDS011;21899;42.662;23.316;2023-12-07T04:24:37;34.15;;;19.08;;
35777;SDS011;21899;42.662;23.316;2023-12-07T04:27:02;34.22;;;19.65;;
35777;SDS011;21899;42.662;23.316;2023-12-07T04:29:28;37.30;;;19.23;;
35777;SDS011;21899;42.662;23.316;2023-12-07T04:31:53;38.00;;;19.48;;
35777;SDS011;21899;42.662;23.316;2023-12-07T04:34:19;34.10;;;19.00;;
35777;SDS011;21899;42.662;23.316;2023-12-07T04:36:45;32.88;;;18.73;;
35777;SDS011;21899;42.662;23.316;2023-12-07T04:39:10;36.22;;;19.65;;
35777;SDS011;21899;42.662;23.316;2023-12-07T04:41:36;33.70;;;17.95;;
35777;SDS011;21899;42.662;23.316;2023-12-07T04:44:01;32.90;;;18.42;;
35777;SDS011;21899;42.662;23.316;2023-12-07T04:46:27;33.25;;;17.65;;
35777;SDS011;21899;42.662;23.316;2023-12-07T04:48:53;34.13;;;18.77;;
35777;SDS011;21899;42.662;23.316;2023-12-07T04:51:19;31.33;;;18.02;;
35777;SDS011;21899;42.662;23.316;2023-12-07T04:53:45;30.83;;;17.83;;
35777;SDS011;21899;42.662;23.316;2023-12-07T04:56:11;33.83;;;17.23;;
35777;SDS011;21899;42.662;23.316;2023-12-07T04:58:36;30.02;;;16.33;;
35777;SDS011;21899;42.662;23.316;2023-12-07T05:01:02;30.23;;;18.13;;
35777;SDS011;21899;42.662;23.316;2023-12-07T05:03:29;33.72;;;17.80;;
35777;SDS011;21899;42.662;23.316;2023-12-07T05:05:54;34.00;;;17.23;;
35777;SDS011;21899;42.662;23.316;2023-12-07T05:08:20;32.42;;;17.25;;
35777;SDS011;21899;42.662;23.316;2023-12-07T05:10:45;27.08;;;16.92;;
35777;SDS011;21899;42.662;23.316;2023-12-07T05:13:11;32.70;;;17.35;;
35777;SDS011;21899;42.662;23.316;2023-12-07T05:15:37;31.98;;;17.30;;
35777;SDS011;21899;42.662;23.316;2023-12-07T05:18:02;32.08;;;19.10;;
35777;SDS011;21899;42.662;23.316;2023-12-07T05:20:28;36.97;;;19.40;;
35777;SDS011;21899;42.662;23.316;2023-12-07T05:22:54;34.38;;;18.85;;
35777;SDS011;21899;42.662;23.316;2023-12-07T05:25:20;32.15;;;18.33;;
35777;SDS011;21899;42.662;23.316;2023-12-07T05:27:45;31.38;;;18.40;;
35777;SDS011;21899;42.662;23.316;2023-12-07T05:30:11;35.05;;;19.38;;
35777;SDS011;21899;42.662;23.316;2023-12-07T05:32:37;33.35;;;18.45;;
35777;SDS011;21899;42.662;23.316;2023-12-07T05:35:03;33.05;;;17.77;;
35777;SDS011;21899;42.662;23.316;2023-12-07T05:37:29;35.85;;;19.13;;
35777;SDS011;21899;42.662;23.316;2023-12-07T05:39:55;33.50;;;18.58;;
35777;SDS011;21899;42.662;23.316;2023-12-07T05:42:20;30.38;;;17.50;;
35777;SDS011;21899;42.662;23.316;2023-12-07T05:44:46;33.58;;;18.15;;
35777;SDS011;21899;42.662;23.316;2023-12-07T05:47:11;32.85;;;18.60;;
35777;SDS011;21899;42.662;23.316;2023-12-07T05:49:37;31.58;;;18.30;;
35777;SDS011;21899;42.662;23.316;2023-12-07T05:52:02;33.35;;;18.77;;
35777;SDS011;21899;42.662;23.316;2023-12-07T05:54:28;30.23;;;17.73;;
35777;SDS011;21899;42.662;23.316;2023-12-07T05:56:54;29.85;;;16.88;;
35777;SDS011;21899;42.662;23.316;2023-12-07T05:59:19;29.42;;;16.88;;
35777;SDS011;21899;42.662;23.316;2023-12-07T06:01:44;30.48;;;17.70;;
35777;SDS011;21899;42.662;23.316;2023-12-07T06:04:10;30.92;;;17.65;;
35777;SDS011;21899;42.662;23.316;2023-12-07T06:06:37;30.42;;;16.63;;
35777;SDS011;21899;42.662;23.316;2023-12-07T06:09:03;30.88;;;17.13;;
35777;SDS011;21899;42.662;23.316;2023-12-07T06:11:30;29.38;;;17.88;;
35777;SDS011;21899;42.662;23.316;2023-12-07T06:13:56;28.08;;;17.27;;
35777;SDS011;21899;42.662;23.316;2023-12-07T06:16:24;28.02;;;15.23;;
35777;SDS011;21899;42.662;23.316;2023-12-07T06:18:49;30.88;;;17.25;;
35777;SDS011;21899;42.662;23.316;2023-12-07T06:21:15;27.92;;;15.95;;
35777;SDS011;21899;42.662;23.316;2023-12-07T06:23:40;27.25;;;15.88;;
35777;SDS011;21899;42.662;23.316;2023-12-07T06:26:06;27.00;;;15.98;;
35777;SDS011;21899;42.662;23.316;2023-12-07T06:28:32;28.08;;;14.93;;
35777;SDS011;21899;42.662;23.316;2023-12-07T06:30:59;28.08;;;16.58;;
35777;SDS011;21899;42.662;23.316;2023-12-07T06:33:31;25.58;;;14.80;;
35777;SDS011;21899;42.662;23.316;2023-12-07T06:35:56;25.02;;;14.50;;
35777;SDS011;21899;42.662;23.316;2023-12-07T06:38:22;31.25;;;15.65;;
35777;SDS011;21899;42.662;23.316;2023-12-07T06:40:47;25.75;;;14.73;;
35777;SDS011;21899;42.662;23.316;2023-12-07T06:43:13;26.55;;;15.52;;
35777;SDS011;21899;42.662;23.316;2023-12-07T06:45:39;23.55;;;14.60;;
35777;SDS011;21899;42.662;23.316;2023-12-07T06:48:05;23.02;;;13.52;;
35777;SDS011;21899;42.662;23.316;2023-12-07T06:50:30;28.88;;;14.40;;
35777;SDS011;21899;42.662;23.316;2023-12-07T06:52:56;24.77;;;14.13;;
35777;SDS011;21899;42.662;23.316;2023-12-07T06:55:22;24.40;;;15.15;;
35777;SDS011;21899;42.662;23.316;2023-12-07T06:57:48;26.00;;;14.35;;
35777;SDS011;21899;42.662;23.316;2023-12-07T07:00:13;24.85;;;14.15;;
35777;SDS011;21899;42.662;23.316;2023-12-07T07:02:39;66.53;;;33.97;;
35777;SDS011;21899;42.662;23.316;2023-12-07T07:05:05;27.45;;;15.10;;
35777;SDS011;21899;42.662;23.316;2023-12-07T07:07:31;26.40;;;15.25;;
35777;SDS011;21899;42.662;23.316;2023-12-07T07:09:57;21.75;;;13.75;;
35777;SDS011;21899;42.662;23.316;2023-12-07T07:12:22;26.98;;;15.15;;
35777;SDS011;21899;42.662;23.316;2023-12-07T07:14:48;26.33;;;15.00;;
35777;SDS011;21899;42.662;23.316;2023-12-07T07:17:14;26.02;;;14.60;;
35777;SDS011;21899;42.662;23.316;2023-12-07T07:19:40;28.80;;;14.18;;
35777;SDS011;21899;42.662;23.316;2023-12-07T07:22:07;20.70;;;12.45;;
35777;SDS011;21899;42.662;23.316;2023-12-07T07:24:34;21.00;;;11.98;;
35777;SDS011;21899;42.662;23.316;2023-12-07T07:27:00;22.00;;;11.30;;
35777;SDS011;21899;42.662;23.316;2023-12-07T07:29:25;23.30;;;12.25;;
35777;SDS011;21899;42.662;23.316;2023-12-07T07:31:51;26.40;;;13.52;;
35777;SDS011;21899;42.662;23.316;2023-12-07T07:34:17;24.63;;;15.00;;
35777;SDS011;21899;42.662;23.316;2023-12-07T07:36:43;24.48;;;13.30;;
35777;SDS011;21899;42.662;23.316;2023-12-07T07:39:09;26.75;;;15.05;;
35777;SDS011;21899;42.662;23.316;2023-12-07T07:41:35;28.13;;;14.98;;
35777;SDS011;21899;42.662;23.316;2023-12-07T07:44:01;27.17;;;15.15;;
35777;SDS011;21899;42.662;23.316;2023-12-07T07:46:27;29.08;;;15.20;;
35777;SDS011;21899;42.662;23.316;2023-12-07T07:48:53;22.95;;;14.60;;
35777;SDS011;21899;42.662;23.316;2023-12-07T07:51:18;27.20;;;15.23;;
35777;SDS011;21899;42.662;23.316;2023-12-07T07:53:44;26.08;;;15.85;;
35777;SDS011;21899;42.662;23.316;2023-12-07T07:56:09;27.92;;;15.45;;
35777;SDS011;21899;42.662;23.316;2023-12-07T07:58:35;27.67;;;16.20;;
35777;SDS011;21899;42.662;23.316;2023-12-07T08:01:00;25.23;;;14.35;;
35777;SDS011;21899;42.662;23.316;2023-12-07T08:03:26;22.00;;;12.63;;
35777;SDS011;21899;42.662;23.316;2023-12-07T08:05:51;21.75;;;10.82;;
35777;SDS011;21899;42.662;23.316;2023-12-07T08:08:17;15.52;;;9.63;;
35777;SDS011;21899;42.662;23.316;2023-12-07T08:10:42;15.27;;;9.63;;
35777;SDS011;21899;42.662;23.316;2023-12-07T08:13:08;16.88;;;10.40;;
35777;SDS011;21899;42.662;23.316;2023-12-07T08:15:34;20.80;;;10.30;;
35777;SDS011;21899;42.662;23.316;2023-12-07T08:18:00;27.17;;;10.35;;
35777;SDS011;21899;42.662;23.316;2023-12-07T08:20:25;15.52;;;9.15;;
35777;SDS011;21899;42.662;23.316;2023-12-07T08:22:51;16.38;;;8.93;;
35777;SDS011;21899;42.662;23.316;2023-12-07T08:25:17;17.00;;;9.60;;
35777;SDS011;21899;42.662;23.316;2023-12-07T08:27:42;17.33;;;9.55;;
35777;SDS011;21899;42.662;23.316;2023-12-07T08:30:12;14.20;;;8.15;;
35777;SDS011;21899;42.662;23.316;2023-12-07T08:32:38;13.93;;;8.60;;
35777;SDS011;21899;42.662;23.316;2023-12-07T08:35:04;13.98;;;8.55;;
35777;SDS011;21899;42.662;23.316;2023-12-07T08:37:33;15.15;;;7.97;;
35777;SDS011;21899;42.662;23.316;2023-12-07T08:40:01;15.30;;;6.80;;
35777;SDS011;21899;42.662;23.316;2023-12-07T08:42:27;11.75;;;6.18;;
35777;SDS011;21899;42.662;23.316;2023-12-07T08:44:53;10.75;;;6.00;;
35777;SDS011;21899;42.662;23.316;2023-12-07T08:47:19;12.77;;;6.07;;
35777;SDS011;21899;42.662;23.316;2023-12-07T08:49:44;9.27;;;5.63;;
35777;SDS011;21899;42.662;23.316;2023-12-07T08:52:10;9.82;;;5.90;;
35777;SDS011;21899;42.662;23.316;2023-12-07T08:54:35;11.40;;;5.68;;
35777;SDS011;21899;42.662;23.316;2023-12-07T08:57:01;7.55;;;4.82;;
35777;SDS011;21899;42.662;23.316;2023-12-07T08:59:28;9.02;;;4.57;;
35777;SDS011;21899;42.662;23.316;2023-12-07T09:01:55;6.50;;;4.22;;
35777;SDS011;21899;42.662;23.316;2023-12-07T09:04:20;6.68;;;4.35;;
35777;SDS011;21899;42.662;23.316;2023-12-07T09:06:46;7.43;;;3.92;;
35777;SDS011;21899;42.662;23.316;2023-12-07T09:09:11;5.35;;;3.58;;
35777;SDS011;21899;42.662;23.316;2023-12-07T09:11:37;5.72;;;3.05;;
35777;SDS011;21899;42.662;23.316;2023-12-07T09:14:02;4.88;;;2.70;;
35777;SDS011;21899;42.662;23.316;2023-12-07T09:16:28;7.50;;;3.20;;
35777;SDS011;21899;42.662;23.316;2023-12-07T09:18:53;4.35;;;2.65;;
35777;SDS011;21899;42.662;23.316;2023-12-07T09:21:19;5.07;;;3.10;;
35777;SDS011;21899;42.662;23.316;2023-12-07T09:23:45;6.63;;;3.05;;
35777;SDS011;21899;42.662;23.316;2023-12-07T09:26:10;4.63;;;3.13;;
35777;SDS011;21899;42.662;23.316;2023-12-07T09:28:36;3.97;;;2.47;;
35777;SDS011;21899;42.662;23.316;2023-12-07T09:31:02;4.72;;;2.50;;
35777;SDS011;21899;42.662;23.316;2023-12-07T09:33:28;4.78;;;2.97;;
35777;SDS011;21899;42.662;23.316;2023-12-07T09:35:53;3.67;;;2.38;;
35777;SDS011;21899;42.662;23.316;2023-12-07T09:38:19;3.55;;;2.33;;
35777;SDS011;21899;42.662;23.316;2023-12-07T09:40:45;4.70;;;2.90;;
35777;SDS011;21899;42.662;23.316;2023-12-07T09:43:11;4.00;;;2.70;;
35777;SDS011;21899;42.662;23.316;2023-12-07T09:45:37;4.10;;;2.35;;
35777;SDS011;21899;42.662;23.316;2023-12-07T09:48:03;3.80;;;2.30;;
35777;SDS011;21899;42.662;23.316;2023-12-07T09:50:29;4.40;;;2.33;;
35777;SDS011;21899;42.662;23.316;2023-12-07T09:52:56;4.85;;;2.30;;
35777;SDS011;21899;42.662;23.316;2023-12-07T09:55:23;3.83;;;2.45;;
35777;SDS011;21899;42.662;23.316;2023-12-07T09:57:50;3.90;;;2.20;;
35777;SDS011;21899;42.662;23.316;2023-12-07T10:00:16;4.32;;;2.05;;
35777;SDS011;21899;42.662;23.316;2023-12-07T10:02:44;5.53;;;2.22;;
35777;SDS011;21899;42.662;23.316;2023-12-07T10:05:14;3.35;;;1.98;;
35777;SDS011;21899;42.662;23.316;2023-12-07T10:07:44;5.55;;;2.17;;
35777;SDS011;21899;42.662;23.316;2023-12-07T10:10:14;5.03;;;2.45;;
35777;SDS011;21899;42.662;23.316;2023-12-07T10:13:14;4.03;;;2.50;;
35777;SDS011;21899;42.662;23.316;2023-12-07T10:15:33;6.38;;;2.03;;
35777;SDS011;21899;42.662;23.316;2023-12-07T10:17:58;3.25;;;1.88;;
35777;SDS011;21899;42.662;23.316;2023-12-07T10:20:25;2.63;;;1.50;;
35777;SDS011;21899;42.662;23.316;2023-12-07T10:23:02;2.00;;;1.20;;
35777;SDS011;21899;42.662;23.316;2023-12-07T10:25:37;2.53;;;1.40;;
35777;SDS011;21899;42.662;23.316;2023-12-07T10:28:04;2.45;;;1.40;;
35777;SDS011;21899;42.662;23.316;2023-12-07T10:30:33;3.35;;;1.85;;
35777;SDS011;21899;42.662;23.316;2023-12-07T10:32:58;2.88;;;1.60;;
35777;SDS011;21899;42.662;23.316;2023-12-07T10:35:24;5.30;;;1.67;;
35777;SDS011;21899;42.662;23.316;2023-12-07T10:37:50;3.03;;;1.60;;
35777;SDS011;21899;42.662;23.316;2023-12-07T10:40:16;3.97;;;1.73;;
35777;SDS011;21899;42.662;23.316;2023-12-07T10:42:44;3.67;;;1.90;;
35777;SDS011;21899;42.662;23.316;2023-12-07T10:45:13;4.05;;;2.15;;
35777;SDS011;21899;42.662;23.316;2023-12-07T10:47:40;2.88;;;1.63;;
35777;SDS011;21899;42.662;23.316;2023-12-07T10:50:09;3.92;;;2.30;;
35777;SDS011;21899;42.662;23.316;2023-12-07T10:52:48;4.43;;;2.00;;
35777;SDS011;21899;42.662;23.316;2023-12-07T10:55:21;4.13;;;2.00;;
35777;SDS011;21899;42.662;23.316;2023-12-07T10:57:53;3.30;;;1.77;;
35777;SDS011;21899;42.662;23.316;2023-12-07T11:00:23;4.07;;;2.33;;
35777;SDS011;21899;42.662;23.316;2023-12-07T11:02:52;3.00;;;1.80;;
35777;SDS011;21899;42.662;23.316;2023-12-07T11:05:18;3.97;;;2.30;;
35777;SDS011;21899;42.662;23.316;2023-12-07T11:07:52;6.35;;;2.33;;
35777;SDS011;21899;42.662;23.316;2023-12-07T11:10:32;5.60;;;2.45;;
35777;SDS011;21899;42.662;23.316;2023-12-07T11:15:56;5.10;;;2.70;;
35777;SDS011;21899;42.662;23.316;2023-12-07T11:18:24;4.80;;;2.40;;
35777;SDS011;21899;42.662;23.316;2023-12-07T11:20:51;5.35;;;2.65;;
35777;SDS011;21899;42.662;23.316;2023-12-07T11:23:18;4.60;;;2.63;;
35777;SDS011;21899;42.662;23.316;2023-12-07T11:25:45;5.55;;;2.53;;
35777;SDS011;21899;42.662;23.316;2023-12-07T11:28:12;5.65;;;2.47;;
35777;SDS011;21899;42.662;23.316;2023-12-07T11:30:38;5.35;;;2.67;;
35777;SDS011;21899;42.662;23.316;2023-12-07T11:33:08;7.25;;;2.72;;
35777;SDS011;21899;42.662;23.316;2023-12-07T11:36:03;6.68;;;2.55;;
35777;SDS011;21899;42.662;23.316;2023-12-07T11:38:30;4.68;;;2.58;;
35777;SDS011;21899;42.662;23.316;2023-12-07T11:40:56;7.13;;;2.38;;
35777;SDS011;21899;42.662;23.316;2023-12-07T11:46:06;5.18;;;2.67;;
35777;SDS011;21899;42.662;23.316;2023-12-07T11:48:32;3.17;;;2.13;;
35777;SDS011;21899;42.662;23.316;2023-12-07T11:50:59;4.30;;;2.25;;
35777;SDS011;21899;42.662;23.316;2023-12-07T11:53:29;4.88;;;2.42;;
35777;SDS011;21899;42.662;23.316;2023-12-07T11:56:00;4.60;;;2.38;;
35777;SDS011;21899;42.662;23.316;2023-12-07T11:58:32;4.22;;;2.42;;
35777;SDS011;21899;42.662;23.316;2023-12-07T12:00:59;7.35;;;2.90;;
35777;SDS011;21899;42.662;23.316;2023-12-07T12:03:28;4.85;;;2.80;;
35777;SDS011;21899;42.662;23.316;2023-12-07T12:05:57;4.57;;;2.55;;
35777;SDS011;21899;42.662;23.316;2023-12-07T12:08:23;4.00;;;2.50;;
35777;SDS011;21899;42.662;23.316;2023-12-07T12:10:49;3.72;;;2.30;;
35777;SDS011;21899;42.662;23.316;2023-12-07T12:13:17;4.90;;;2.78;;
35777;SDS011;21899;42.662;23.316;2023-12-07T12:15:44;4.60;;;2.80;;
35777;SDS011;21899;42.662;23.316;2023-12-07T12:18:11;6.72;;;2.90;;
35777;SDS011;21899;42.662;23.316;2023-12-07T12:20:38;5.78;;;3.03;;
35777;SDS011;21899;42.662;23.316;2023-12-07T12:23:05;5.47;;;2.83;;
35777;SDS011;21899;42.662;23.316;2023-12-07T12:25:30;4.78;;;2.33;;
35777;SDS011;21899;42.662;23.316;2023-12-07T12:27:57;4.47;;;2.58;;
35777;SDS011;21899;42.662;23.316;2023-12-07T12:30:23;4.47;;;2.83;;
35777;SDS011;21899;42.662;23.316;2023-12-07T12:32:50;4.03;;;2.53;;
35777;SDS011;21899;42.662;23.316;2023-12-07T12:35:16;5.22;;;2.38;;
35777;SDS011;21899;42.662;23.316;2023-12-07T12:37:42;4.80;;;2.80;;
35777;SDS011;21899;42.662;23.316;2023-12-07T12:40:14;5.07;;;2.80;;
35777;SDS011;21899;42.662;23.316;2023-12-07T12:42:43;7.05;;;3.10;;
35777;SDS011;21899;42.662;23.316;2023-12-07T12:45:16;5.30;;;3.08;;
35777;SDS011;21899;42.662;23.316;2023-12-07T12:47:46;5.53;;;2.90;;
35777;SDS011;21899;42.662;23.316;2023-12-07T12:50:35;5.13;;;3.03;;
35777;SDS011;21899;42.662;23.316;2023-12-07T12:53:02;5.03;;;2.78;;
35777;SDS011;21899;42.662;23.316;2023-12-07T12:55:30;6.35;;;3.40;;
35777;SDS011;21899;42.662;23.316;2023-12-07T12:57:58;5.85;;;3.22;;
35777;SDS011;21899;42.662;23.316;2023-12-07T13:00:26;4.43;;;3.15;;
35777;SDS011;21899;42.662;23.316;2023-12-07T13:02:54;5.07;;;3.33;;
35777;SDS011;21899;42.662;23.316;2023-12-07T13:05:20;5.55;;;3.63;;
35777;SDS011;21899;42.662;23.316;2023-12-07T13:07:46;4.55;;;2.90;;
35777;SDS011;21899;42.662;23.316;2023-12-07T13:10:14;5.22;;;3.65;;
35777;SDS011;21899;42.662;23.316;2023-12-07T13:12:40;5.50;;;3.83;;
35777;SDS011;21899;42.662;23.316;2023-12-07T13:15:06;6.95;;;3.85;;
35777;SDS011;21899;42.662;23.316;2023-12-07T13:17:32;5.45;;;3.83;;
35777;SDS011;21899;42.662;23.316;2023-12-07T13:19:57;7.60;;;4.70;;
35777;SDS011;21899;42.662;23.316;2023-12-07T13:22:23;4.88;;;3.85;;
35777;SDS011;21899;42.662;23.316;2023-12-07T13:24:48;5.63;;;3.55;;
35777;SDS011;21899;42.662;23.316;2023-12-07T13:27:15;8.38;;;4.50;;
35777;SDS011;21899;42.662;23.316;2023-12-07T13:29:40;6.18;;;3.95;;
35777;SDS011;21899;42.662;23.316;2023-12-07T13:32:06;6.18;;;3.97;;
35777;SDS011;21899;42.662;23.316;2023-12-07T13:34:32;7.00;;;3.78;;
35777;SDS011;21899;42.662;23.316;2023-12-07T13:36:57;8.48;;;4.80;;
35777;SDS011;21899;42.662;23.316;2023-12-07T13:39:23;6.82;;;4.13;;
35777;SDS011;21899;42.662;23.316;2023-12-07T13:41:48;6.72;;;4.28;;
35777;SDS011;21899;42.662;23.316;2023-12-07T13:44:15;7.40;;;4.30;;
35777;SDS011;21899;42.662;23.316;2023-12-07T13:46:42;7.57;;;4.82;;
35777;SDS011;21899;42.662;23.316;2023-12-07T13:49:09;7.47;;;4.40;;
35777;SDS011;21899;42.662;23.316;2023-12-07T13:51:36;7.40;;;4.93;;
35777;SDS011;21899;42.662;23.316;2023-12-07T13:54:02;7.15;;;4.80;;
35777;SDS011;21899;42.662;23.316;2023-12-07T13:56:28;9.18;;;5.43;;
35777;SDS011;21899;42.662;23.316;2023-12-07T13:58:53;8.65;;;4.93;;
35777;SDS011;21899;42.662;23.316;2023-12-07T14:01:19;9.52;;;5.07;;
35777;SDS011;21899;42.662;23.316;2023-12-07T14:03:44;7.15;;;4.80;;
35777;SDS011;21899;42.662;23.316;2023-12-07T14:06:10;10.52;;;5.97;;
35777;SDS011;21899;42.662;23.316;2023-12-07T14:08:37;13.43;;;6.32;;
35777;SDS011;21899;42.662;23.316;2023-12-07T14:11:03;11.93;;;5.60;;
35777;SDS011;21899;42.662;23.316;2023-12-07T14:13:29;11.38;;;6.25;;
35777;SDS011;21899;42.662;23.316;2023-12-07T14:15:54;10.88;;;6.90;;
35777;SDS011;21899;42.662;23.316;2023-12-07T14:18:20;12.15;;;7.35;;
35777;SDS011;21899;42.662;23.316;2023-12-07T14:20:45;11.73;;;6.57;;
35777;SDS011;21899;42.662;23.316;2023-12-07T14:23:11;9.80;;;6.55;;
35777;SDS011;21899;42.662;23.316;2023-12-07T14:25:37;10.88;;;6.88;;